Terminal Aerodrome Forecast
Issued by NWS

Home | Current Version | Previous Version | Text Only | Print | Product List | Glossary On
Versions: 1 2 3 4 5 6 7 8 9 10 11 12 13 14 15 16 17 18 19 20
621
FTUS41 KPHI 270523
TAFPNE
TAF
KPNE 270523Z 2706/2806 06008KT 2SM BR OVC003
     FM270800 08005KT 3/4SM BR OVC002
      TEMPO 2708/2711 3SM -SHRA BR SCT002 OVC008
     FM271200 09004KT 2SM BR OVC008
      TEMPO 2714/2717 21006KT 4SM -SHRA OVC020
     FM271700 23008KT P6SM BKN020 BKN200
     FM272100 23008KT P6SM BKN050
     FM280400 16003KT 4SM BR BKN020=

USA.gov is the U.S. government's official web portal to all federal, state and local government web resources and services.